sensor_id;sensor_type;location;lat;lon;timestamp;P1;durP1;ratioP1;P2;durP2;ratioP2
70320;SDS011;61127;55.826;37.046;2022-10-18T00:02:07;15.85;;;8.00;;
70320;SDS011;61127;55.826;37.046;2022-10-18T00:04:34;18.30;;;7.68;;
70320;SDS011;61127;55.826;37.046;2022-10-18T00:06:59;15.82;;;7.40;;
70320;SDS011;61127;55.826;37.046;2022-10-18T00:09:25;16.10;;;7.70;;
70320;SDS011;61127;55.826;37.046;2022-10-18T00:11:52;13.68;;;7.32;;
70320;SDS011;61127;55.826;37.046;2022-10-18T00:14:19;15.65;;;7.00;;
70320;SDS011;61127;55.826;37.046;2022-10-18T00:16:44;13.65;;;7.30;;
70320;SDS011;61127;55.826;37.046;2022-10-18T00:19:10;13.63;;;6.80;;
70320;SDS011;61127;55.826;37.046;2022-10-18T00:21:36;14.93;;;6.95;;
70320;SDS011;61127;55.826;37.046;2022-10-18T00:24:03;15.75;;;7.30;;
70320;SDS011;61127;55.826;37.046;2022-10-18T00:26:29;15.27;;;6.70;;
70320;SDS011;61127;55.826;37.046;2022-10-18T00:28:58;13.35;;;7.20;;
70320;SDS011;61127;55.826;37.046;2022-10-18T00:31:25;12.80;;;6.72;;
70320;SDS011;61127;55.826;37.046;2022-10-18T00:33:52;18.23;;;6.73;;
70320;SDS011;61127;55.826;37.046;2022-10-18T00:36:18;13.27;;;7.03;;
70320;SDS011;61127;55.826;37.046;2022-10-18T00:38:45;13.38;;;6.30;;
70320;SDS011;61127;55.826;37.046;2022-10-18T00:41:13;13.13;;;6.43;;
70320;SDS011;61127;55.826;37.046;2022-10-18T00:46:26;13.13;;;6.57;;
70320;SDS011;61127;55.826;37.046;2022-10-18T00:48:52;12.80;;;6.28;;
70320;SDS011;61127;55.826;37.046;2022-10-18T00:51:19;10.60;;;5.78;;
70320;SDS011;61127;55.826;37.046;2022-10-18T00:53:47;14.38;;;6.68;;
70320;SDS011;61127;55.826;37.046;2022-10-18T00:56:12;10.40;;;6.07;;
70320;SDS011;61127;55.826;37.046;2022-10-18T00:58:38;12.37;;;6.30;;
70320;SDS011;61127;55.826;37.046;2022-10-18T01:01:04;14.95;;;6.78;;
70320;SDS011;61127;55.826;37.046;2022-10-18T01:03:30;11.87;;;6.00;;
70320;SDS011;61127;55.826;37.046;2022-10-18T01:05:57;14.45;;;6.78;;
70320;SDS011;61127;55.826;37.046;2022-10-18T01:08:28;11.60;;;6.05;;
70320;SDS011;61127;55.826;37.046;2022-10-18T01:13:32;13.15;;;6.07;;
70320;SDS011;61127;55.826;37.046;2022-10-18T01:24:13;14.30;;;6.57;;
70320;SDS011;61127;55.826;37.046;2022-10-18T01:26:31;15.57;;;7.22;;
70320;SDS011;61127;55.826;37.046;2022-10-18T01:31:41;14.95;;;6.40;;
70320;SDS011;61127;55.826;37.046;2022-10-18T01:34:11;12.60;;;6.63;;
70320;SDS011;61127;55.826;37.046;2022-10-18T01:36:40;15.38;;;6.07;;
70320;SDS011;61127;55.826;37.046;2022-10-18T01:39:08;12.10;;;5.88;;
70320;SDS011;61127;55.826;37.046;2022-10-18T01:41:36;11.82;;;6.38;;
70320;SDS011;61127;55.826;37.046;2022-10-18T01:44:05;14.95;;;7.03;;
70320;SDS011;61127;55.826;37.046;2022-10-18T01:46:32;14.57;;;6.57;;
70320;SDS011;61127;55.826;37.046;2022-10-18T01:48:58;15.15;;;6.38;;
70320;SDS011;61127;55.826;37.046;2022-10-18T01:51:27;14.77;;;6.82;;
70320;SDS011;61127;55.826;37.046;2022-10-18T01:53:55;11.35;;;5.95;;
70320;SDS011;61127;55.826;37.046;2022-10-18T01:58:59;17.52;;;6.63;;
70320;SDS011;61127;55.826;37.046;2022-10-18T02:01:49;12.88;;;6.38;;
70320;SDS011;61127;55.826;37.046;2022-10-18T02:04:23;10.73;;;5.60;;
70320;SDS011;61127;55.826;37.046;2022-10-18T02:06:57;9.50;;;5.68;;
70320;SDS011;61127;55.826;37.046;2022-10-18T02:13:08;14.75;;;6.20;;
70320;SDS011;61127;55.826;37.046;2022-10-18T02:15:36;11.85;;;5.63;;
70320;SDS011;61127;55.826;37.046;2022-10-18T02:18:04;11.53;;;5.57;;
70320;SDS011;61127;55.826;37.046;2022-10-18T02:20:31;13.10;;;6.22;;
70320;SDS011;61127;55.826;37.046;2022-10-18T02:26:51;10.45;;;6.10;;
70320;SDS011;61127;55.826;37.046;2022-10-18T02:29:17;9.73;;;5.68;;
70320;SDS011;61127;55.826;37.046;2022-10-18T02:31:44;10.53;;;5.50;;
70320;SDS011;61127;55.826;37.046;2022-10-18T02:34:33;11.05;;;5.55;;
70320;SDS011;61127;55.826;37.046;2022-10-18T02:36:57;13.20;;;5.22;;
70320;SDS011;61127;55.826;37.046;2022-10-18T02:39:31;13.50;;;5.57;;
70320;SDS011;61127;55.826;37.046;2022-10-18T02:41:59;14.75;;;5.85;;
70320;SDS011;61127;55.826;37.046;2022-10-18T02:44:25;11.77;;;5.67;;
70320;SDS011;61127;55.826;37.046;2022-10-18T02:46:51;11.48;;;5.85;;
70320;SDS011;61127;55.826;37.046;2022-10-18T02:49:17;11.25;;;6.00;;
70320;SDS011;61127;55.826;37.046;2022-10-18T02:51:43;12.60;;;6.30;;
70320;SDS011;61127;55.826;37.046;2022-10-18T02:54:09;10.82;;;6.03;;
70320;SDS011;61127;55.826;37.046;2022-10-18T02:56:35;11.20;;;5.97;;
70320;SDS011;61127;55.826;37.046;2022-10-18T02:59:01;11.83;;;6.50;;
70320;SDS011;61127;55.826;37.046;2022-10-18T03:01:29;12.50;;;6.18;;
70320;SDS011;61127;55.826;37.046;2022-10-18T03:03:55;13.77;;;6.23;;
70320;SDS011;61127;55.826;37.046;2022-10-18T03:06:20;13.70;;;5.88;;
70320;SDS011;61127;55.826;37.046;2022-10-18T03:08:46;15.83;;;5.70;;
70320;SDS011;61127;55.826;37.046;2022-10-18T03:11:11;15.75;;;5.80;;
70320;SDS011;61127;55.826;37.046;2022-10-18T03:13:40;11.80;;;5.95;;
70320;SDS011;61127;55.826;37.046;2022-10-18T03:16:06;12.00;;;6.15;;
70320;SDS011;61127;55.826;37.046;2022-10-18T03:18:32;14.68;;;6.18;;
70320;SDS011;61127;55.826;37.046;2022-10-18T03:20:57;11.93;;;5.80;;
70320;SDS011;61127;55.826;37.046;2022-10-18T03:23:23;12.70;;;5.57;;
70320;SDS011;61127;55.826;37.046;2022-10-18T03:25:49;14.57;;;6.60;;
70320;SDS011;61127;55.826;37.046;2022-10-18T03:28:15;14.20;;;5.80;;
70320;SDS011;61127;55.826;37.046;2022-10-18T03:30:41;9.70;;;5.70;;
70320;SDS011;61127;55.826;37.046;2022-10-18T03:33:06;13.75;;;6.07;;
70320;SDS011;61127;55.826;37.046;2022-10-18T03:35:33;14.07;;;5.72;;
70320;SDS011;61127;55.826;37.046;2022-10-18T03:37:59;11.95;;;6.18;;
70320;SDS011;61127;55.826;37.046;2022-10-18T03:40:24;14.10;;;6.23;;
70320;SDS011;61127;55.826;37.046;2022-10-18T03:42:50;11.15;;;5.45;;
70320;SDS011;61127;55.826;37.046;2022-10-18T03:45:19;13.77;;;6.40;;
70320;SDS011;61127;55.826;37.046;2022-10-18T03:47:45;10.35;;;5.28;;
70320;SDS011;61127;55.826;37.046;2022-10-18T03:50:11;10.67;;;5.40;;
70320;SDS011;61127;55.826;37.046;2022-10-18T03:52:36;12.55;;;5.88;;
70320;SDS011;61127;55.826;37.046;2022-10-18T03:55:03;11.40;;;5.90;;
70320;SDS011;61127;55.826;37.046;2022-10-18T03:57:29;13.90;;;5.93;;
70320;SDS011;61127;55.826;37.046;2022-10-18T03:59:55;12.30;;;5.50;;
70320;SDS011;61127;55.826;37.046;2022-10-18T04:02:20;17.20;;;5.77;;
70320;SDS011;61127;55.826;37.046;2022-10-18T04:04:46;12.38;;;6.72;;
70320;SDS011;61127;55.826;37.046;2022-10-18T04:07:11;10.40;;;5.27;;
70320;SDS011;61127;55.826;37.046;2022-10-18T04:09:38;15.23;;;6.30;;
70320;SDS011;61127;55.826;37.046;2022-10-18T04:12:03;15.60;;;6.28;;
70320;SDS011;61127;55.826;37.046;2022-10-18T04:14:30;17.80;;;7.10;;
70320;SDS011;61127;55.826;37.046;2022-10-18T04:16:56;14.10;;;6.78;;
70320;SDS011;61127;55.826;37.046;2022-10-18T04:19:21;15.30;;;7.40;;
70320;SDS011;61127;55.826;37.046;2022-10-18T04:21:47;16.85;;;7.30;;
70320;SDS011;61127;55.826;37.046;2022-10-18T04:24:15;16.67;;;7.13;;
70320;SDS011;61127;55.826;37.046;2022-10-18T04:26:40;15.90;;;7.30;;
70320;SDS011;61127;55.826;37.046;2022-10-18T04:29:06;16.23;;;7.80;;
70320;SDS011;61127;55.826;37.046;2022-10-18T04:31:31;16.27;;;7.70;;
70320;SDS011;61127;55.826;37.046;2022-10-18T04:33:57;14.07;;;7.22;;
70320;SDS011;61127;55.826;37.046;2022-10-18T04:36:22;15.57;;;7.57;;
70320;SDS011;61127;55.826;37.046;2022-10-18T04:38:48;14.40;;;7.38;;
70320;SDS011;61127;55.826;37.046;2022-10-18T04:41:14;17.37;;;7.20;;
70320;SDS011;61127;55.826;37.046;2022-10-18T04:43:41;15.97;;;7.70;;
70320;SDS011;61127;55.826;37.046;2022-10-18T04:46:06;16.70;;;7.05;;
70320;SDS011;61127;55.826;37.046;2022-10-18T04:48:32;15.38;;;7.47;;
70320;SDS011;61127;55.826;37.046;2022-10-18T04:50:57;16.80;;;7.00;;
70320;SDS011;61127;55.826;37.046;2022-10-18T04:53:23;16.25;;;7.40;;
70320;SDS011;61127;55.826;37.046;2022-10-18T04:55:50;13.73;;;6.90;;
70320;SDS011;61127;55.826;37.046;2022-10-18T04:58:16;14.88;;;6.57;;
70320;SDS011;61127;55.826;37.046;2022-10-18T05:00:42;16.30;;;6.97;;
70320;SDS011;61127;55.826;37.046;2022-10-18T05:03:08;13.97;;;6.93;;
70320;SDS011;61127;55.826;37.046;2022-10-18T05:05:35;14.77;;;7.28;;
70320;SDS011;61127;55.826;37.046;2022-10-18T05:08:01;12.95;;;6.70;;
70320;SDS011;61127;55.826;37.046;2022-10-18T05:10:26;16.47;;;6.87;;
70320;SDS011;61127;55.826;37.046;2022-10-18T05:12:52;16.38;;;6.95;;
70320;SDS011;61127;55.826;37.046;2022-10-18T05:15:18;18.00;;;7.03;;
70320;SDS011;61127;55.826;37.046;2022-10-18T05:17:43;15.93;;;7.30;;
70320;SDS011;61127;55.826;37.046;2022-10-18T05:20:09;15.17;;;7.47;;
70320;SDS011;61127;55.826;37.046;2022-10-18T05:22:35;15.75;;;7.20;;
70320;SDS011;61127;55.826;37.046;2022-10-18T05:25:05;14.27;;;6.90;;
70320;SDS011;61127;55.826;37.046;2022-10-18T05:27:31;16.98;;;8.38;;
70320;SDS011;61127;55.826;37.046;2022-10-18T05:29:56;17.98;;;7.78;;
70320;SDS011;61127;55.826;37.046;2022-10-18T05:32:22;17.27;;;8.63;;
70320;SDS011;61127;55.826;37.046;2022-10-18T05:34:48;18.63;;;7.63;;
70320;SDS011;61127;55.826;37.046;2022-10-18T05:37:13;15.27;;;7.60;;
70320;SDS011;61127;55.826;37.046;2022-10-18T05:39:39;20.53;;;9.20;;
70320;SDS011;61127;55.826;37.046;2022-10-18T05:42:05;16.63;;;8.43;;
70320;SDS011;61127;55.826;37.046;2022-10-18T05:44:31;16.27;;;7.97;;
70320;SDS011;61127;55.826;37.046;2022-10-18T05:46:57;15.90;;;8.10;;
70320;SDS011;61127;55.826;37.046;2022-10-18T05:49:23;18.42;;;7.68;;
70320;SDS011;61127;55.826;37.046;2022-10-18T05:51:48;16.50;;;8.43;;
70320;SDS011;61127;55.826;37.046;2022-10-18T05:54:16;14.30;;;7.80;;
70320;SDS011;61127;55.826;37.046;2022-10-18T05:56:42;20.05;;;8.07;;
70320;SDS011;61127;55.826;37.046;2022-10-18T05:59:07;18.67;;;8.52;;
70320;SDS011;61127;55.826;37.046;2022-10-18T06:01:36;18.83;;;8.40;;
70320;SDS011;61127;55.826;37.046;2022-10-18T06:04:02;13.75;;;7.60;;
70320;SDS011;61127;55.826;37.046;2022-10-18T06:06:28;19.15;;;9.20;;
70320;SDS011;61127;55.826;37.046;2022-10-18T06:08:54;20.03;;;8.57;;
70320;SDS011;61127;55.826;37.046;2022-10-18T06:11:20;18.58;;;8.52;;
70320;SDS011;61127;55.826;37.046;2022-10-18T06:13:48;16.95;;;8.80;;
70320;SDS011;61127;55.826;37.046;2022-10-18T06:16:15;17.67;;;8.93;;
70320;SDS011;61127;55.826;37.046;2022-10-18T06:18:40;19.70;;;9.23;;
70320;SDS011;61127;55.826;37.046;2022-10-18T06:21:06;20.60;;;10.07;;
70320;SDS011;61127;55.826;37.046;2022-10-18T06:23:32;20.70;;;10.13;;
70320;SDS011;61127;55.826;37.046;2022-10-18T06:26:04;21.23;;;9.70;;
70320;SDS011;61127;55.826;37.046;2022-10-18T06:28:33;25.58;;;10.38;;
70320;SDS011;61127;55.826;37.046;2022-10-18T06:30:59;19.98;;;10.68;;
70320;SDS011;61127;55.826;37.046;2022-10-18T06:33:24;22.70;;;10.43;;
70320;SDS011;61127;55.826;37.046;2022-10-18T06:35:56;28.60;;;11.40;;
70320;SDS011;61127;55.826;37.046;2022-10-18T06:38:21;26.50;;;10.88;;
70320;SDS011;61127;55.826;37.046;2022-10-18T06:40:47;26.97;;;12.07;;
70320;SDS011;61127;55.826;37.046;2022-10-18T06:43:13;23.58;;;12.10;;
70320;SDS011;61127;55.826;37.046;2022-10-18T06:45:39;25.20;;;12.67;;
70320;SDS011;61127;55.826;37.046;2022-10-18T06:48:04;26.55;;;11.52;;
70320;SDS011;61127;55.826;37.046;2022-10-18T06:50:30;26.08;;;10.75;;
70320;SDS011;61127;55.826;37.046;2022-10-18T06:52:56;32.97;;;12.27;;
70320;SDS011;61127;55.826;37.046;2022-10-18T06:55:23;23.05;;;11.55;;
70320;SDS011;61127;55.826;37.046;2022-10-18T06:57:48;23.05;;;11.10;;
70320;SDS011;61127;55.826;37.046;2022-10-18T07:00:14;20.37;;;10.67;;
70320;SDS011;61127;55.826;37.046;2022-10-18T07:02:40;23.15;;;11.05;;
70320;SDS011;61127;55.826;37.046;2022-10-18T07:05:06;23.55;;;10.75;;
70320;SDS011;61127;55.826;37.046;2022-10-18T07:07:32;21.07;;;10.80;;
70320;SDS011;61127;55.826;37.046;2022-10-18T07:09:57;22.27;;;10.90;;
70320;SDS011;61127;55.826;37.046;2022-10-18T07:12:23;26.23;;;11.33;;
70320;SDS011;61127;55.826;37.046;2022-10-18T07:14:50;19.33;;;10.32;;
70320;SDS011;61127;55.826;37.046;2022-10-18T07:17:15;20.13;;;9.93;;
70320;SDS011;61127;55.826;37.046;2022-10-18T07:19:41;23.67;;;9.93;;
70320;SDS011;61127;55.826;37.046;2022-10-18T07:22:07;22.33;;;10.32;;
70320;SDS011;61127;55.826;37.046;2022-10-18T07:24:33;18.53;;;9.07;;
70320;SDS011;61127;55.826;37.046;2022-10-18T07:26:58;19.98;;;9.95;;
70320;SDS011;61127;55.826;37.046;2022-10-18T07:29:24;25.30;;;9.70;;
70320;SDS011;61127;55.826;37.046;2022-10-18T07:31:50;18.23;;;10.00;;
70320;SDS011;61127;55.826;37.046;2022-10-18T07:34:16;19.55;;;9.40;;
70320;SDS011;61127;55.826;37.046;2022-10-18T07:36:41;21.88;;;9.85;;
70320;SDS011;61127;55.826;37.046;2022-10-18T07:39:07;22.57;;;9.30;;
70320;SDS011;61127;55.826;37.046;2022-10-18T07:41:33;19.92;;;9.13;;
70320;SDS011;61127;55.826;37.046;2022-10-18T07:44:02;18.38;;;8.88;;
70320;SDS011;61127;55.826;37.046;2022-10-18T07:46:28;19.40;;;9.23;;
70320;SDS011;61127;55.826;37.046;2022-10-18T07:48:54;18.85;;;9.02;;
70320;SDS011;61127;55.826;37.046;2022-10-18T07:51:20;21.38;;;10.20;;
70320;SDS011;61127;55.826;37.046;2022-10-18T07:53:46;19.23;;;9.20;;
70320;SDS011;61127;55.826;37.046;2022-10-18T07:56:16;23.73;;;10.30;;
70320;SDS011;61127;55.826;37.046;2022-10-18T07:58:45;19.35;;;9.43;;
70320;SDS011;61127;55.826;37.046;2022-10-18T08:01:11;19.35;;;9.02;;
70320;SDS011;61127;55.826;37.046;2022-10-18T08:03:37;23.42;;;9.60;;
70320;SDS011;61127;55.826;37.046;2022-10-18T08:06:04;21.80;;;9.85;;
70320;SDS011;61127;55.826;37.046;2022-10-18T08:08:31;20.80;;;9.90;;
70320;SDS011;61127;55.826;37.046;2022-10-18T08:11:30;20.83;;;9.98;;
70320;SDS011;61127;55.826;37.046;2022-10-18T08:13:52;23.60;;;10.60;;
70320;SDS011;61127;55.826;37.046;2022-10-18T08:16:22;22.95;;;10.10;;
70320;SDS011;61127;55.826;37.046;2022-10-18T08:18:48;23.17;;;10.40;;
70320;SDS011;61127;55.826;37.046;2022-10-18T08:21:14;21.03;;;9.70;;
70320;SDS011;61127;55.826;37.046;2022-10-18T08:23:41;22.30;;;9.90;;
70320;SDS011;61127;55.826;37.046;2022-10-18T08:26:07;21.75;;;9.57;;
70320;SDS011;61127;55.826;37.046;2022-10-18T08:28:34;24.58;;;10.50;;
70320;SDS011;61127;55.826;37.046;2022-10-18T08:31:08;19.27;;;10.55;;
70320;SDS011;61127;55.826;37.046;2022-10-18T08:33:34;21.30;;;10.53;;
70320;SDS011;61127;55.826;37.046;2022-10-18T08:36:01;23.05;;;9.70;;
70320;SDS011;61127;55.826;37.046;2022-10-18T08:38:30;23.88;;;10.85;;
70320;SDS011;61127;55.826;37.046;2022-10-18T08:43:49;25.58;;;9.60;;
70320;SDS011;61127;55.826;37.046;2022-10-18T08:46:17;20.97;;;9.73;;
70320;SDS011;61127;55.826;37.046;2022-10-18T08:48:45;22.58;;;10.70;;
70320;SDS011;61127;55.826;37.046;2022-10-18T08:56:23;23.07;;;10.33;;
70320;SDS011;61127;55.826;37.046;2022-10-18T08:58:50;23.35;;;10.43;;
70320;SDS011;61127;55.826;37.046;2022-10-18T09:01:19;24.53;;;10.00;;
70320;SDS011;61127;55.826;37.046;2022-10-18T09:20:16;22.00;;;10.00;;
70320;SDS011;61127;55.826;37.046;2022-10-18T09:22:55;18.08;;;8.88;;
70320;SDS011;61127;55.826;37.046;2022-10-18T09:25:18;19.42;;;9.68;;
70320;SDS011;61127;55.826;37.046;2022-10-18T09:27:47;22.63;;;10.03;;
70320;SDS011;61127;55.826;37.046;2022-10-18T09:35:47;19.47;;;9.33;;
70320;SDS011;61127;55.826;37.046;2022-10-18T09:38:15;24.15;;;10.25;;
70320;SDS011;61127;55.826;37.046;2022-10-18T09:40:47;17.33;;;9.25;;
70320;SDS011;61127;55.826;37.046;2022-10-18T09:43:20;18.75;;;9.20;;
70320;SDS011;61127;55.826;37.046;2022-10-18T09:45:47;17.85;;;9.20;;
70320;SDS011;61127;55.826;37.046;2022-10-18T09:48:17;18.33;;;9.75;;
70320;SDS011;61127;55.826;37.046;2022-10-18T09:50:45;17.10;;;9.27;;
70320;SDS011;61127;55.826;37.046;2022-10-18T09:58:44;18.00;;;9.15;;
70320;SDS011;61127;55.826;37.046;2022-10-18T10:01:16;18.45;;;8.70;;
70320;SDS011;61127;55.826;37.046;2022-10-18T10:03:48;15.10;;;8.40;;
70320;SDS011;61127;55.826;37.046;2022-10-18T10:08:40;18.67;;;8.48;;
70320;SDS011;61127;55.826;37.046;2022-10-18T10:13:57;18.42;;;8.63;;
70320;SDS011;61127;55.826;37.046;2022-10-18T10:16:31;16.42;;;8.45;;
70320;SDS011;61127;55.826;37.046;2022-10-18T10:18:59;20.03;;;9.20;;
70320;SDS011;61127;55.826;37.046;2022-10-18T10:21:25;20.40;;;8.55;;
70320;SDS011;61127;55.826;37.046;2022-10-18T10:23:56;15.57;;;8.65;;
70320;SDS011;61127;55.826;37.046;2022-10-18T10:26:42;16.58;;;9.50;;
70320;SDS011;61127;55.826;37.046;2022-10-18T10:32:02;17.08;;;9.35;;
70320;SDS011;61127;55.826;37.046;2022-10-18T10:34:28;17.33;;;9.55;;
70320;SDS011;61127;55.826;37.046;2022-10-18T10:36:54;16.08;;;10.02;;
70320;SDS011;61127;55.826;37.046;2022-10-18T10:39:21;20.65;;;10.70;;
70320;SDS011;61127;55.826;37.046;2022-10-18T10:41:51;23.67;;;12.18;;
70320;SDS011;61127;55.826;37.046;2022-10-18T10:44:22;23.38;;;11.95;;
70320;SDS011;61127;55.826;37.046;2022-10-18T10:46:48;23.73;;;12.80;;
70320;SDS011;61127;55.826;37.046;2022-10-18T10:49:21;24.05;;;12.60;;
70320;SDS011;61127;55.826;37.046;2022-10-18T10:51:57;22.00;;;11.70;;
70320;SDS011;61127;55.826;37.046;2022-10-18T10:54:26;26.80;;;12.18;;
70320;SDS011;61127;55.826;37.046;2022-10-18T11:00:11;25.67;;;14.03;;
70320;SDS011;61127;55.826;37.046;2022-10-18T11:02:20;26.52;;;13.15;;
70320;SDS011;61127;55.826;37.046;2022-10-18T11:04:48;26.13;;;13.48;;
70320;SDS011;61127;55.826;37.046;2022-10-18T11:07:39;28.48;;;14.38;;
70320;SDS011;61127;55.826;37.046;2022-10-18T11:12:40;23.27;;;13.37;;
70320;SDS011;61127;55.826;37.046;2022-10-18T11:20:21;27.42;;;15.23;;
70320;SDS011;61127;55.826;37.046;2022-10-18T11:22:57;27.17;;;14.63;;
70320;SDS011;61127;55.826;37.046;2022-10-18T11:25:27;21.87;;;12.43;;
70320;SDS011;61127;55.826;37.046;2022-10-18T11:38:01;27.87;;;15.37;;
70320;SDS011;61127;55.826;37.046;2022-10-18T11:40:43;31.05;;;15.13;;
70320;SDS011;61127;55.826;37.046;2022-10-18T11:43:14;24.27;;;14.77;;
70320;SDS011;61127;55.826;37.046;2022-10-18T11:48:33;25.90;;;14.27;;
70320;SDS011;61127;55.826;37.046;2022-10-18T12:04:20;24.77;;;13.53;;
70320;SDS011;61127;55.826;37.046;2022-10-18T12:06:48;25.33;;;14.23;;
70320;SDS011;61127;55.826;37.046;2022-10-18T12:11:54;24.23;;;13.50;;
70320;SDS011;61127;55.826;37.046;2022-10-18T12:14:29;21.38;;;12.70;;
70320;SDS011;61127;55.826;37.046;2022-10-18T12:16:57;21.60;;;11.47;;
70320;SDS011;61127;55.826;37.046;2022-10-18T12:19:28;23.75;;;13.20;;
70320;SDS011;61127;55.826;37.046;2022-10-18T12:21:55;19.67;;;11.13;;
70320;SDS011;61127;55.826;37.046;2022-10-18T12:24:24;20.50;;;12.63;;
70320;SDS011;61127;55.826;37.046;2022-10-18T12:26:51;20.52;;;11.80;;
70320;SDS011;61127;55.826;37.046;2022-10-18T12:29:33;20.37;;;11.90;;
70320;SDS011;61127;55.826;37.046;2022-10-18T12:32:02;20.45;;;11.35;;
70320;SDS011;61127;55.826;37.046;2022-10-18T12:37:15;20.05;;;11.00;;
70320;SDS011;61127;55.826;37.046;2022-10-18T12:39:43;20.20;;;11.55;;
70320;SDS011;61127;55.826;37.046;2022-10-18T12:42:17;19.90;;;11.33;;
70320;SDS011;61127;55.826;37.046;2022-10-18T12:44:44;23.75;;;12.25;;
70320;SDS011;61127;55.826;37.046;2022-10-18T12:47:19;20.75;;;11.35;;
70320;SDS011;61127;55.826;37.046;2022-10-18T12:49:55;20.08;;;11.70;;
70320;SDS011;61127;55.826;37.046;2022-10-18T12:52:22;20.77;;;11.05;;
70320;SDS011;61127;55.826;37.046;2022-10-18T13:05:55;14.55;;;8.75;;
70320;SDS011;61127;55.826;37.046;2022-10-18T13:16:11;9.05;;;5.10;;
70320;SDS011;61127;55.826;37.046;2022-10-18T13:18:41;8.32;;;4.57;;
70320;SDS011;61127;55.826;37.046;2022-10-18T13:21:14;8.50;;;4.57;;
70320;SDS011;61127;55.826;37.046;2022-10-18T13:34:14;5.50;;;3.13;;
70320;SDS011;61127;55.826;37.046;2022-10-18T13:36:40;5.40;;;3.00;;
70320;SDS011;61127;55.826;37.046;2022-10-18T13:39:14;4.77;;;2.87;;
70320;SDS011;61127;55.826;37.046;2022-10-18T14:05:19;2.40;;;1.70;;
70320;SDS011;61127;55.826;37.046;2022-10-18T14:07:49;3.25;;;1.50;;
70320;SDS011;61127;55.826;37.046;2022-10-18T14:10:34;4.00;;;1.50;;
70320;SDS011;61127;55.826;37.046;2022-10-18T14:13:01;2.25;;;1.48;;
70320;SDS011;61127;55.826;37.046;2022-10-18T14:15:34;3.03;;;1.90;;
70320;SDS011;61127;55.826;37.046;2022-10-18T14:18:03;2.00;;;1.30;;
70320;SDS011;61127;55.826;37.046;2022-10-18T14:20:40;3.17;;;1.48;;
70320;SDS011;61127;55.826;37.046;2022-10-18T14:25:39;2.47;;;1.27;;
70320;SDS011;61127;55.826;37.046;2022-10-18T14:28:12;1.70;;;1.25;;
70320;SDS011;61127;55.826;37.046;2022-10-18T14:33:24;1.70;;;1.20;;
70320;SDS011;61127;55.826;37.046;2022-10-18T14:35:59;1.48;;;0.90;;
70320;SDS011;61127;55.826;37.046;2022-10-18T14:38:26;1.40;;;0.90;;
70320;SDS011;61127;55.826;37.046;2022-10-18T14:41:03;1.45;;;0.85;;
70320;SDS011;61127;55.826;37.046;2022-10-18T14:43:29;3.37;;;0.97;;
70320;SDS011;61127;55.826;37.046;2022-10-18T14:45:54;1.95;;;0.80;;
70320;SDS011;61127;55.826;37.046;2022-10-18T14:48:32;2.45;;;0.90;;
70320;SDS011;61127;55.826;37.046;2022-10-18T14:50:57;2.63;;;0.70;;
70320;SDS011;61127;55.826;37.046;2022-10-18T14:53:26;1.38;;;0.77;;
70320;SDS011;61127;55.826;37.046;2022-10-18T14:55:59;1.20;;;0.70;;
70320;SDS011;61127;55.826;37.046;2022-10-18T14:58:27;1.60;;;0.80;;
70320;SDS011;61127;55.826;37.046;2022-10-18T15:00:53;0.80;;;0.60;;
70320;SDS011;61127;55.826;37.046;2022-10-18T15:03:19;0.93;;;0.70;;
70320;SDS011;61127;55.826;37.046;2022-10-18T15:08:18;2.50;;;0.70;;
70320;SDS011;61127;55.826;37.046;2022-10-18T15:10:44;1.88;;;0.85;;
70320;SDS011;61127;55.826;37.046;2022-10-18T15:13:14;2.10;;;0.80;;
70320;SDS011;61127;55.826;37.046;2022-10-18T15:18:23;0.80;;;0.80;;
70320;SDS011;61127;55.826;37.046;2022-10-18T15:23:33;1.05;;;0.70;;
70320;SDS011;61127;55.826;37.046;2022-10-18T15:26:08;3.03;;;0.77;;
70320;SDS011;61127;55.826;37.046;2022-10-18T15:28:40;1.00;;;0.70;;
70320;SDS011;61127;55.826;37.046;2022-10-18T15:33:49;2.55;;;0.80;;
70320;SDS011;61127;55.826;37.046;2022-10-18T15:36:29;1.92;;;0.80;;
70320;SDS011;61127;55.826;37.046;2022-10-18T15:39:03;1.07;;;0.70;;
70320;SDS011;61127;55.826;37.046;2022-10-18T15:44:22;2.05;;;0.95;;
70320;SDS011;61127;55.826;37.046;2022-10-18T15:46:51;4.07;;;0.90;;
70320;SDS011;61127;55.826;37.046;2022-10-18T15:51:49;3.10;;;1.00;;
70320;SDS011;61127;55.826;37.046;2022-10-18T15:54:31;1.42;;;0.80;;
70320;SDS011;61127;55.826;37.046;2022-10-18T15:56:56;2.92;;;0.88;;
70320;SDS011;61127;55.826;37.046;2022-10-18T15:59:23;2.58;;;0.70;;
70320;SDS011;61127;55.826;37.046;2022-10-18T16:01:49;3.60;;;0.70;;
70320;SDS011;61127;55.826;37.046;2022-10-18T16:04:17;1.20;;;0.80;;
70320;SDS011;61127;55.826;37.046;2022-10-18T16:06:50;3.60;;;1.80;;
70320;SDS011;61127;55.826;37.046;2022-10-18T16:09:23;6.88;;;3.70;;
70320;SDS011;61127;55.826;37.046;2022-10-18T16:11:49;13.63;;;9.80;;
70320;SDS011;61127;55.826;37.046;2022-10-18T16:14:17;6.70;;;5.45;;
70320;SDS011;61127;55.826;37.046;2022-10-18T16:16:43;4.80;;;2.95;;
70320;SDS011;61127;55.826;37.046;2022-10-18T16:19:12;15.18;;;11.57;;
70320;SDS011;61127;55.826;37.046;2022-10-18T16:21:39;2.58;;;1.75;;
70320;SDS011;61127;55.826;37.046;2022-10-18T16:24:06;2.90;;;1.33;;
70320;SDS011;61127;55.826;37.046;2022-10-18T16:26:33;1.30;;;0.98;;
70320;SDS011;61127;55.826;37.046;2022-10-18T16:29:05;3.90;;;2.67;;
70320;SDS011;61127;55.826;37.046;2022-10-18T16:31:33;3.22;;;1.90;;
70320;SDS011;61127;55.826;37.046;2022-10-18T16:33:59;2.58;;;1.70;;
70320;SDS011;61127;55.826;37.046;2022-10-18T16:36:26;3.97;;;2.35;;
70320;SDS011;61127;55.826;37.046;2022-10-18T16:38:53;4.18;;;3.38;;
70320;SDS011;61127;55.826;37.046;2022-10-18T16:41:19;17.87;;;14.83;;
70320;SDS011;61127;55.826;37.046;2022-10-18T16:43:49;5.30;;;4.10;;
70320;SDS011;61127;55.826;37.046;2022-10-18T16:46:16;4.40;;;3.13;;
70320;SDS011;61127;55.826;37.046;2022-10-18T16:48:43;4.80;;;1.55;;
70320;SDS011;61127;55.826;37.046;2022-10-18T16:51:09;1.02;;;0.52;;
70320;SDS011;61127;55.826;37.046;2022-10-18T16:53:35;2.72;;;0.68;;
70320;SDS011;61127;55.826;37.046;2022-10-18T16:56:04;1.20;;;0.68;;
70320;SDS011;61127;55.826;37.046;2022-10-18T16:58:31;1.40;;;0.75;;
70320;SDS011;61127;55.826;37.046;2022-10-18T17:00:57;0.70;;;0.60;;
70320;SDS011;61127;55.826;37.046;2022-10-18T17:03:23;1.13;;;0.60;;
70320;SDS011;61127;55.826;37.046;2022-10-18T17:05:51;0.50;;;0.45;;
70320;SDS011;61127;55.826;37.046;2022-10-18T17:08:18;1.52;;;0.50;;
70320;SDS011;61127;55.826;37.046;2022-10-18T17:10:44;0.98;;;0.40;;
70320;SDS011;61127;55.826;37.046;2022-10-18T17:13:09;1.50;;;0.50;;
70320;SDS011;61127;55.826;37.046;2022-10-18T17:15:37;1.15;;;0.60;;
70320;SDS011;61127;55.826;37.046;2022-10-18T17:18:05;1.38;;;0.50;;
70320;SDS011;61127;55.826;37.046;2022-10-18T17:20:31;0.70;;;0.40;;
70320;SDS011;61127;55.826;37.046;2022-10-18T17:22:57;2.63;;;0.40;;
70320;SDS011;61127;55.826;37.046;2022-10-18T17:25:26;0.43;;;0.32;;
70320;SDS011;61127;55.826;37.046;2022-10-18T17:27:51;0.68;;;0.50;;
70320;SDS011;61127;55.826;37.046;2022-10-18T17:30:17;0.70;;;0.35;;
70320;SDS011;61127;55.826;37.046;2022-10-18T17:32:43;1.97;;;0.40;;